sensor_id;sensor_type;location;lat;lon;timestamp;P1;durP1;ratioP1;P2;durP2;ratioP2
18048;SDS011;9149;47.002;8.604;2023-06-24T00:01:39;6.05;;;3.35;;
18048;SDS011;9149;47.002;8.604;2023-06-24T00:04:07;5.45;;;3.00;;
18048;SDS011;9149;47.002;8.604;2023-06-24T00:06:35;9.77;;;3.33;;
18048;SDS011;9149;47.002;8.604;2023-06-24T00:09:06;5.75;;;2.88;;
18048;SDS011;9149;47.002;8.604;2023-06-24T00:14:21;5.03;;;3.05;;
18048;SDS011;9149;47.002;8.604;2023-06-24T00:16:50;6.55;;;3.05;;
18048;SDS011;9149;47.002;8.604;2023-06-24T00:19:19;8.88;;;3.47;;
18048;SDS011;9149;47.002;8.604;2023-06-24T00:21:47;5.25;;;2.97;;
18048;SDS011;9149;47.002;8.604;2023-06-24T00:24:17;4.70;;;3.33;;
18048;SDS011;9149;47.002;8.604;2023-06-24T00:26:45;5.18;;;2.90;;
18048;SDS011;9149;47.002;8.604;2023-06-24T00:29:13;7.35;;;3.30;;
18048;SDS011;9149;47.002;8.604;2023-06-24T00:31:42;6.10;;;3.17;;
18048;SDS011;9149;47.002;8.604;2023-06-24T00:34:10;5.47;;;2.83;;
18048;SDS011;9149;47.002;8.604;2023-06-24T00:36:38;8.18;;;2.90;;
18048;SDS011;9149;47.002;8.604;2023-06-24T00:39:05;5.35;;;3.30;;
18048;SDS011;9149;47.002;8.604;2023-06-24T00:41:34;6.00;;;2.78;;
18048;SDS011;9149;47.002;8.604;2023-06-24T00:44:02;9.52;;;3.03;;
18048;SDS011;9149;47.002;8.604;2023-06-24T00:46:30;8.20;;;3.10;;
18048;SDS011;9149;47.002;8.604;2023-06-24T00:49:00;3.97;;;2.65;;
18048;SDS011;9149;47.002;8.604;2023-06-24T00:51:29;5.70;;;3.28;;
18048;SDS011;9149;47.002;8.604;2023-06-24T00:53:58;4.53;;;3.00;;
18048;SDS011;9149;47.002;8.604;2023-06-24T00:56:28;7.20;;;2.85;;
18048;SDS011;9149;47.002;8.604;2023-06-24T00:58:57;4.20;;;2.83;;
18048;SDS011;9149;47.002;8.604;2023-06-24T01:01:25;4.47;;;2.80;;
18048;SDS011;9149;47.002;8.604;2023-06-24T01:03:52;3.95;;;2.75;;
18048;SDS011;9149;47.002;8.604;2023-06-24T01:06:21;4.70;;;3.00;;
18048;SDS011;9149;47.002;8.604;2023-06-24T01:08:49;5.43;;;3.20;;
18048;SDS011;9149;47.002;8.604;2023-06-24T01:11:17;4.20;;;2.60;;
18048;SDS011;9149;47.002;8.604;2023-06-24T01:13:45;5.15;;;3.10;;
18048;SDS011;9149;47.002;8.604;2023-06-24T01:16:14;5.32;;;3.10;;
18048;SDS011;9149;47.002;8.604;2023-06-24T01:18:47;5.03;;;3.20;;
18048;SDS011;9149;47.002;8.604;2023-06-24T01:21:18;8.02;;;3.08;;
18048;SDS011;9149;47.002;8.604;2023-06-24T01:24:00;4.97;;;2.85;;
18048;SDS011;9149;47.002;8.604;2023-06-24T01:26:38;4.75;;;2.88;;
18048;SDS011;9149;47.002;8.604;2023-06-24T01:31:51;5.70;;;3.17;;
18048;SDS011;9149;47.002;8.604;2023-06-24T01:34:22;4.85;;;3.25;;
18048;SDS011;9149;47.002;8.604;2023-06-24T01:36:54;5.55;;;3.38;;
18048;SDS011;9149;47.002;8.604;2023-06-24T01:39:23;5.28;;;2.63;;
18048;SDS011;9149;47.002;8.604;2023-06-24T01:41:53;5.40;;;3.35;;
18048;SDS011;9149;47.002;8.604;2023-06-24T01:44:22;6.45;;;3.38;;
18048;SDS011;9149;47.002;8.604;2023-06-24T01:46:51;5.25;;;3.10;;
18048;SDS011;9149;47.002;8.604;2023-06-24T01:49:22;5.18;;;3.35;;
18048;SDS011;9149;47.002;8.604;2023-06-24T01:51:50;7.45;;;2.95;;
18048;SDS011;9149;47.002;8.604;2023-06-24T01:54:18;4.60;;;2.90;;
18048;SDS011;9149;47.002;8.604;2023-06-24T01:56:49;5.13;;;3.17;;
18048;SDS011;9149;47.002;8.604;2023-06-24T01:59:17;6.80;;;3.00;;
18048;SDS011;9149;47.002;8.604;2023-06-24T02:01:45;5.35;;;3.15;;
18048;SDS011;9149;47.002;8.604;2023-06-24T02:04:14;4.78;;;3.05;;
18048;SDS011;9149;47.002;8.604;2023-06-24T02:06:43;7.82;;;3.00;;
18048;SDS011;9149;47.002;8.604;2023-06-24T02:09:12;6.25;;;3.38;;
18048;SDS011;9149;47.002;8.604;2023-06-24T02:11:40;4.40;;;2.92;;
18048;SDS011;9149;47.002;8.604;2023-06-24T02:14:08;5.53;;;3.17;;
18048;SDS011;9149;47.002;8.604;2023-06-24T02:16:37;6.60;;;3.30;;
18048;SDS011;9149;47.002;8.604;2023-06-24T02:19:07;5.70;;;2.88;;
18048;SDS011;9149;47.002;8.604;2023-06-24T02:21:38;5.00;;;3.08;;
18048;SDS011;9149;47.002;8.604;2023-06-24T02:24:06;11.68;;;2.88;;
18048;SDS011;9149;47.002;8.604;2023-06-24T02:30:13;5.88;;;3.20;;
18048;SDS011;9149;47.002;8.604;2023-06-24T02:32:42;12.63;;;3.28;;
18048;SDS011;9149;47.002;8.604;2023-06-24T02:35:09;4.32;;;2.67;;
18048;SDS011;9149;47.002;8.604;2023-06-24T02:37:39;6.53;;;3.50;;
18048;SDS011;9149;47.002;8.604;2023-06-24T02:40:07;6.47;;;3.03;;
18048;SDS011;9149;47.002;8.604;2023-06-24T02:42:37;9.60;;;3.42;;
18048;SDS011;9149;47.002;8.604;2023-06-24T02:45:06;8.70;;;3.25;;
18048;SDS011;9149;47.002;8.604;2023-06-24T02:47:35;4.47;;;3.03;;
18048;SDS011;9149;47.002;8.604;2023-06-24T02:50:03;4.95;;;2.95;;
18048;SDS011;9149;47.002;8.604;2023-06-24T02:52:32;5.18;;;3.25;;
18048;SDS011;9149;47.002;8.604;2023-06-24T02:55:06;15.73;;;2.95;;
18048;SDS011;9149;47.002;8.604;2023-06-24T02:57:46;4.88;;;2.92;;
18048;SDS011;9149;47.002;8.604;2023-06-24T03:00:23;9.88;;;3.50;;
18048;SDS011;9149;47.002;8.604;2023-06-24T03:03:12;6.68;;;3.10;;
18048;SDS011;9149;47.002;8.604;2023-06-24T03:05:56;4.93;;;2.97;;
18048;SDS011;9149;47.002;8.604;2023-06-24T03:08:27;5.30;;;3.22;;
18048;SDS011;9149;47.002;8.604;2023-06-24T03:10:57;4.93;;;3.00;;
18048;SDS011;9149;47.002;8.604;2023-06-24T03:13:28;4.97;;;3.40;;
18048;SDS011;9149;47.002;8.604;2023-06-24T03:16:02;4.95;;;3.10;;
18048;SDS011;9149;47.002;8.604;2023-06-24T03:18:35;5.60;;;2.70;;
18048;SDS011;9149;47.002;8.604;2023-06-24T03:21:05;4.97;;;3.05;;
18048;SDS011;9149;47.002;8.604;2023-06-24T03:23:33;6.57;;;3.22;;
18048;SDS011;9149;47.002;8.604;2023-06-24T03:26:02;8.80;;;3.78;;
18048;SDS011;9149;47.002;8.604;2023-06-24T03:28:30;5.30;;;3.17;;
18048;SDS011;9149;47.002;8.604;2023-06-24T03:31:07;7.95;;;3.08;;
18048;SDS011;9149;47.002;8.604;2023-06-24T03:33:36;7.13;;;3.60;;
18048;SDS011;9149;47.002;8.604;2023-06-24T03:36:05;8.15;;;3.88;;
18048;SDS011;9149;47.002;8.604;2023-06-24T03:38:33;6.07;;;3.35;;
18048;SDS011;9149;47.002;8.604;2023-06-24T03:41:02;7.15;;;3.17;;
18048;SDS011;9149;47.002;8.604;2023-06-24T03:43:32;4.65;;;3.15;;
18048;SDS011;9149;47.002;8.604;2023-06-24T03:45:59;6.30;;;3.53;;
18048;SDS011;9149;47.002;8.604;2023-06-24T03:48:28;5.15;;;3.13;;
18048;SDS011;9149;47.002;8.604;2023-06-24T03:50:56;7.20;;;3.50;;
18048;SDS011;9149;47.002;8.604;2023-06-24T03:53:25;5.88;;;3.22;;
18048;SDS011;9149;47.002;8.604;2023-06-24T03:55:53;4.95;;;2.97;;
18048;SDS011;9149;47.002;8.604;2023-06-24T03:58:22;5.18;;;3.20;;
18048;SDS011;9149;47.002;8.604;2023-06-24T04:00:49;4.75;;;3.00;;
18048;SDS011;9149;47.002;8.604;2023-06-24T04:03:17;5.90;;;3.55;;
18048;SDS011;9149;47.002;8.604;2023-06-24T04:05:45;6.45;;;3.15;;
18048;SDS011;9149;47.002;8.604;2023-06-24T04:08:15;7.05;;;3.10;;
18048;SDS011;9149;47.002;8.604;2023-06-24T04:10:42;6.82;;;3.53;;
18048;SDS011;9149;47.002;8.604;2023-06-24T04:13:11;4.50;;;3.10;;
18048;SDS011;9149;47.002;8.604;2023-06-24T04:15:40;7.50;;;3.30;;
18048;SDS011;9149;47.002;8.604;2023-06-24T04:18:08;6.35;;;3.25;;
18048;SDS011;9149;47.002;8.604;2023-06-24T04:20:36;8.00;;;3.47;;
18048;SDS011;9149;47.002;8.604;2023-06-24T04:23:04;6.40;;;3.35;;
18048;SDS011;9149;47.002;8.604;2023-06-24T04:25:34;6.03;;;3.55;;
18048;SDS011;9149;47.002;8.604;2023-06-24T04:28:02;4.68;;;3.17;;
18048;SDS011;9149;47.002;8.604;2023-06-24T04:30:31;5.18;;;3.13;;
18048;SDS011;9149;47.002;8.604;2023-06-24T04:33:00;9.40;;;3.53;;
18048;SDS011;9149;47.002;8.604;2023-06-24T04:35:27;7.25;;;3.80;;
18048;SDS011;9149;47.002;8.604;2023-06-24T04:37:56;5.35;;;3.67;;
18048;SDS011;9149;47.002;8.604;2023-06-24T04:40:24;8.60;;;3.58;;
18048;SDS011;9149;47.002;8.604;2023-06-24T04:42:52;7.60;;;3.40;;
18048;SDS011;9149;47.002;8.604;2023-06-24T04:45:19;5.68;;;3.60;;
18048;SDS011;9149;47.002;8.604;2023-06-24T04:47:47;6.60;;;3.53;;
18048;SDS011;9149;47.002;8.604;2023-06-24T04:50:16;5.15;;;3.60;;
18048;SDS011;9149;47.002;8.604;2023-06-24T04:52:44;5.55;;;3.65;;
18048;SDS011;9149;47.002;8.604;2023-06-24T04:55:11;4.90;;;3.15;;
18048;SDS011;9149;47.002;8.604;2023-06-24T04:57:39;7.20;;;3.70;;
18048;SDS011;9149;47.002;8.604;2023-06-24T05:00:08;6.15;;;3.35;;
18048;SDS011;9149;47.002;8.604;2023-06-24T05:02:36;9.07;;;3.63;;
18048;SDS011;9149;47.002;8.604;2023-06-24T05:05:04;8.25;;;3.58;;
18048;SDS011;9149;47.002;8.604;2023-06-24T05:07:33;7.78;;;3.70;;
18048;SDS011;9149;47.002;8.604;2023-06-24T05:10:01;7.07;;;3.67;;
18048;SDS011;9149;47.002;8.604;2023-06-24T05:12:28;7.57;;;3.58;;
18048;SDS011;9149;47.002;8.604;2023-06-24T05:14:56;5.78;;;3.20;;
18048;SDS011;9149;47.002;8.604;2023-06-24T05:17:24;5.55;;;3.20;;
18048;SDS011;9149;47.002;8.604;2023-06-24T05:19:52;6.53;;;3.85;;
18048;SDS011;9149;47.002;8.604;2023-06-24T05:22:19;4.95;;;3.20;;
18048;SDS011;9149;47.002;8.604;2023-06-24T05:24:48;7.30;;;3.50;;
18048;SDS011;9149;47.002;8.604;2023-06-24T05:27:16;5.43;;;3.33;;
18048;SDS011;9149;47.002;8.604;2023-06-24T05:29:44;4.53;;;2.90;;
18048;SDS011;9149;47.002;8.604;2023-06-24T05:32:12;7.38;;;3.10;;
18048;SDS011;9149;47.002;8.604;2023-06-24T05:34:40;4.65;;;3.10;;
18048;SDS011;9149;47.002;8.604;2023-06-24T05:37:08;7.55;;;3.22;;
18048;SDS011;9149;47.002;8.604;2023-06-24T05:39:36;6.95;;;3.03;;
18048;SDS011;9149;47.002;8.604;2023-06-24T05:42:05;5.68;;;3.40;;
18048;SDS011;9149;47.002;8.604;2023-06-24T05:44:32;7.55;;;3.10;;
18048;SDS011;9149;47.002;8.604;2023-06-24T05:47:00;4.63;;;2.97;;
18048;SDS011;9149;47.002;8.604;2023-06-24T05:49:28;8.93;;;3.60;;
18048;SDS011;9149;47.002;8.604;2023-06-24T05:51:56;5.72;;;2.80;;
18048;SDS011;9149;47.002;8.604;2023-06-24T05:54:23;7.82;;;3.25;;
18048;SDS011;9149;47.002;8.604;2023-06-24T05:56:51;3.92;;;2.80;;
18048;SDS011;9149;47.002;8.604;2023-06-24T05:59:20;5.57;;;3.40;;
18048;SDS011;9149;47.002;8.604;2023-06-24T06:01:48;5.20;;;2.92;;
18048;SDS011;9149;47.002;8.604;2023-06-24T06:04:15;5.90;;;3.10;;
18048;SDS011;9149;47.002;8.604;2023-06-24T06:06:43;6.65;;;3.28;;
18048;SDS011;9149;47.002;8.604;2023-06-24T06:09:11;4.78;;;3.13;;
18048;SDS011;9149;47.002;8.604;2023-06-24T06:11:38;6.05;;;3.20;;
18048;SDS011;9149;47.002;8.604;2023-06-24T06:14:06;5.00;;;3.25;;
18048;SDS011;9149;47.002;8.604;2023-06-24T06:16:35;6.75;;;3.30;;
18048;SDS011;9149;47.002;8.604;2023-06-24T06:19:02;7.53;;;3.13;;
18048;SDS011;9149;47.002;8.604;2023-06-24T06:21:30;5.35;;;2.92;;
18048;SDS011;9149;47.002;8.604;2023-06-24T06:23:58;6.28;;;3.25;;
18048;SDS011;9149;47.002;8.604;2023-06-24T06:26:25;6.10;;;2.75;;
18048;SDS011;9149;47.002;8.604;2023-06-24T06:28:53;4.85;;;2.97;;
18048;SDS011;9149;47.002;8.604;2023-06-24T06:31:21;4.75;;;3.00;;
18048;SDS011;9149;47.002;8.604;2023-06-24T06:33:50;7.25;;;2.85;;
18048;SDS011;9149;47.002;8.604;2023-06-24T06:36:18;3.85;;;2.70;;
18048;SDS011;9149;47.002;8.604;2023-06-24T06:38:46;10.52;;;3.05;;
18048;SDS011;9149;47.002;8.604;2023-06-24T06:41:13;5.60;;;3.03;;
18048;SDS011;9149;47.002;8.604;2023-06-24T06:43:41;4.50;;;2.60;;
18048;SDS011;9149;47.002;8.604;2023-06-24T06:46:09;5.93;;;3.03;;
18048;SDS011;9149;47.002;8.604;2023-06-24T06:48:36;8.75;;;3.13;;
18048;SDS011;9149;47.002;8.604;2023-06-24T06:51:05;5.13;;;2.88;;
18048;SDS011;9149;47.002;8.604;2023-06-24T06:53:33;4.57;;;2.70;;
18048;SDS011;9149;47.002;8.604;2023-06-24T06:56:01;4.88;;;3.10;;
18048;SDS011;9149;47.002;8.604;2023-06-24T06:58:28;8.43;;;2.80;;
18048;SDS011;9149;47.002;8.604;2023-06-24T07:00:56;4.57;;;2.88;;
18048;SDS011;9149;47.002;8.604;2023-06-24T07:03:27;4.13;;;2.50;;
18048;SDS011;9149;47.002;8.604;2023-06-24T07:05:55;4.15;;;2.47;;
18048;SDS011;9149;47.002;8.604;2023-06-24T07:08:24;7.82;;;2.83;;
18048;SDS011;9149;47.002;8.604;2023-06-24T07:10:52;5.53;;;3.03;;
18048;SDS011;9149;47.002;8.604;2023-06-24T07:13:19;5.25;;;3.13;;
18048;SDS011;9149;47.002;8.604;2023-06-24T07:15:47;8.50;;;2.60;;
18048;SDS011;9149;47.002;8.604;2023-06-24T07:18:15;5.65;;;2.70;;
18048;SDS011;9149;47.002;8.604;2023-06-24T07:20:42;4.38;;;2.63;;
18048;SDS011;9149;47.002;8.604;2023-06-24T07:23:10;6.25;;;2.80;;
18048;SDS011;9149;47.002;8.604;2023-06-24T07:25:39;5.28;;;2.58;;
18048;SDS011;9149;47.002;8.604;2023-06-24T07:28:06;6.15;;;3.00;;
18048;SDS011;9149;47.002;8.604;2023-06-24T07:30:34;11.25;;;2.55;;
18048;SDS011;9149;47.002;8.604;2023-06-24T07:33:02;4.93;;;2.50;;
18048;SDS011;9149;47.002;8.604;2023-06-24T07:35:32;7.70;;;3.05;;
18048;SDS011;9149;47.002;8.604;2023-06-24T07:38:00;5.10;;;2.63;;
18048;SDS011;9149;47.002;8.604;2023-06-24T07:40:28;4.72;;;2.40;;
18048;SDS011;9149;47.002;8.604;2023-06-24T07:42:57;3.70;;;2.45;;
18048;SDS011;9149;47.002;8.604;2023-06-24T07:45:24;3.85;;;2.35;;
18048;SDS011;9149;47.002;8.604;2023-06-24T07:47:52;5.40;;;2.83;;
18048;SDS011;9149;47.002;8.604;2023-06-24T07:50:20;6.55;;;2.67;;
18048;SDS011;9149;47.002;8.604;2023-06-24T07:52:48;4.03;;;2.67;;
18048;SDS011;9149;47.002;8.604;2023-06-24T07:55:15;5.47;;;2.90;;
18048;SDS011;9149;47.002;8.604;2023-06-24T07:57:44;13.30;;;3.25;;
18048;SDS011;9149;47.002;8.604;2023-06-24T08:00:14;5.53;;;2.95;;
18048;SDS011;9149;47.002;8.604;2023-06-24T08:02:42;7.68;;;3.15;;
18048;SDS011;9149;47.002;8.604;2023-06-24T08:05:10;6.10;;;3.42;;
18048;SDS011;9149;47.002;8.604;2023-06-24T08:07:37;6.35;;;3.05;;
18048;SDS011;9149;47.002;8.604;2023-06-24T08:10:06;4.22;;;2.55;;
18048;SDS011;9149;47.002;8.604;2023-06-24T08:12:33;8.45;;;3.33;;
18048;SDS011;9149;47.002;8.604;2023-06-24T08:15:01;7.93;;;3.30;;
18048;SDS011;9149;47.002;8.604;2023-06-24T08:17:31;6.07;;;3.13;;
18048;SDS011;9149;47.002;8.604;2023-06-24T08:20:00;5.28;;;3.17;;
18048;SDS011;9149;47.002;8.604;2023-06-24T08:22:27;5.43;;;3.20;;
18048;SDS011;9149;47.002;8.604;2023-06-24T08:24:55;5.30;;;3.58;;
18048;SDS011;9149;47.002;8.604;2023-06-24T08:27:23;4.50;;;3.00;;
18048;SDS011;9149;47.002;8.604;2023-06-24T08:29:50;7.10;;;3.33;;
18048;SDS011;9149;47.002;8.604;2023-06-24T08:32:18;6.85;;;3.47;;
18048;SDS011;9149;47.002;8.604;2023-06-24T08:34:47;5.53;;;3.17;;
18048;SDS011;9149;47.002;8.604;2023-06-24T08:37:14;6.03;;;3.10;;
18048;SDS011;9149;47.002;8.604;2023-06-24T08:39:42;5.18;;;3.22;;
18048;SDS011;9149;47.002;8.604;2023-06-24T08:42:10;5.22;;;3.25;;
18048;SDS011;9149;47.002;8.604;2023-06-24T08:44:37;5.47;;;3.30;;
18048;SDS011;9149;47.002;8.604;2023-06-24T08:47:05;6.45;;;3.50;;
18048;SDS011;9149;47.002;8.604;2023-06-24T08:49:33;5.85;;;3.55;;
18048;SDS011;9149;47.002;8.604;2023-06-24T08:52:03;6.70;;;3.95;;
18048;SDS011;9149;47.002;8.604;2023-06-24T08:54:34;6.80;;;3.47;;
18048;SDS011;9149;47.002;8.604;2023-06-24T08:57:02;5.82;;;3.60;;
18048;SDS011;9149;47.002;8.604;2023-06-24T08:59:32;5.72;;;3.50;;
18048;SDS011;9149;47.002;8.604;2023-06-24T09:02:00;6.63;;;3.05;;
18048;SDS011;9149;47.002;8.604;2023-06-24T09:04:28;7.38;;;4.05;;
18048;SDS011;9149;47.002;8.604;2023-06-24T09:06:56;5.60;;;3.67;;
18048;SDS011;9149;47.002;8.604;2023-06-24T09:09:25;6.88;;;3.95;;
18048;SDS011;9149;47.002;8.604;2023-06-24T09:11:55;6.20;;;3.55;;
18048;SDS011;9149;47.002;8.604;2023-06-24T09:14:23;7.97;;;4.35;;
18048;SDS011;9149;47.002;8.604;2023-06-24T09:16:52;9.30;;;4.82;;
18048;SDS011;9149;47.002;8.604;2023-06-24T09:19:21;8.85;;;4.22;;
18048;SDS011;9149;47.002;8.604;2023-06-24T09:21:49;10.82;;;5.07;;
18048;SDS011;9149;47.002;8.604;2023-06-24T09:24:18;9.52;;;4.85;;
18048;SDS011;9149;47.002;8.604;2023-06-24T09:26:47;8.05;;;4.60;;
18048;SDS011;9149;47.002;8.604;2023-06-24T09:29:14;6.93;;;4.78;;
18048;SDS011;9149;47.002;8.604;2023-06-24T09:31:46;7.38;;;4.38;;
18048;SDS011;9149;47.002;8.604;2023-06-24T09:34:14;8.45;;;5.05;;
18048;SDS011;9149;47.002;8.604;2023-06-24T09:36:42;9.85;;;5.00;;
18048;SDS011;9149;47.002;8.604;2023-06-24T09:39:10;8.48;;;4.95;;
18048;SDS011;9149;47.002;8.604;2023-06-24T09:41:56;6.88;;;4.30;;
18048;SDS011;9149;47.002;8.604;2023-06-24T09:44:24;7.15;;;4.45;;
18048;SDS011;9149;47.002;8.604;2023-06-24T09:46:52;17.88;;;5.57;;
18048;SDS011;9149;47.002;8.604;2023-06-24T09:49:20;8.65;;;5.28;;
18048;SDS011;9149;47.002;8.604;2023-06-24T09:51:49;8.27;;;4.88;;
18048;SDS011;9149;47.002;8.604;2023-06-24T09:54:17;8.07;;;5.05;;
18048;SDS011;9149;47.002;8.604;2023-06-24T09:56:45;9.20;;;5.28;;
18048;SDS011;9149;47.002;8.604;2023-06-24T09:59:17;6.95;;;4.43;;
18048;SDS011;9149;47.002;8.604;2023-06-24T10:01:46;7.32;;;4.88;;
18048;SDS011;9149;47.002;8.604;2023-06-24T10:04:15;9.18;;;4.53;;
18048;SDS011;9149;47.002;8.604;2023-06-24T10:06:43;8.27;;;4.60;;
18048;SDS011;9149;47.002;8.604;2023-06-24T10:09:11;7.97;;;4.22;;
18048;SDS011;9149;47.002;8.604;2023-06-24T10:11:43;9.52;;;4.22;;
18048;SDS011;9149;47.002;8.604;2023-06-24T10:14:10;6.60;;;4.00;;
18048;SDS011;9149;47.002;8.604;2023-06-24T10:16:39;8.57;;;4.15;;
18048;SDS011;9149;47.002;8.604;2023-06-24T10:19:07;7.32;;;3.90;;
18048;SDS011;9149;47.002;8.604;2023-06-24T10:24:27;6.93;;;4.00;;
18048;SDS011;9149;47.002;8.604;2023-06-24T10:26:55;5.78;;;3.58;;
18048;SDS011;9149;47.002;8.604;2023-06-24T10:29:30;8.50;;;3.80;;
18048;SDS011;9149;47.002;8.604;2023-06-24T10:32:01;10.73;;;3.67;;
18048;SDS011;9149;47.002;8.604;2023-06-24T10:34:31;7.15;;;3.47;;
18048;SDS011;9149;47.002;8.604;2023-06-24T10:36:59;5.57;;;3.30;;
18048;SDS011;9149;47.002;8.604;2023-06-24T10:39:34;6.63;;;3.42;;
18048;SDS011;9149;47.002;8.604;2023-06-24T10:44:45;5.88;;;3.55;;
18048;SDS011;9149;47.002;8.604;2023-06-24T10:47:14;6.10;;;3.15;;
18048;SDS011;9149;47.002;8.604;2023-06-24T10:49:42;5.72;;;3.58;;
18048;SDS011;9149;47.002;8.604;2023-06-24T10:52:10;4.88;;;3.53;;
18048;SDS011;9149;47.002;8.604;2023-06-24T10:54:38;6.13;;;3.60;;
18048;SDS011;9149;47.002;8.604;2023-06-24T10:57:06;5.18;;;2.88;;
18048;SDS011;9149;47.002;8.604;2023-06-24T10:59:34;5.82;;;3.25;;
18048;SDS011;9149;47.002;8.604;2023-06-24T11:02:01;9.10;;;3.53;;
18048;SDS011;9149;47.002;8.604;2023-06-24T11:04:30;4.70;;;3.28;;
18048;SDS011;9149;47.002;8.604;2023-06-24T11:06:58;11.05;;;3.05;;
18048;SDS011;9149;47.002;8.604;2023-06-24T11:09:26;6.35;;;3.10;;
18048;SDS011;9149;47.002;8.604;2023-06-24T11:11:53;4.80;;;3.10;;
18048;SDS011;9149;47.002;8.604;2023-06-24T11:14:21;5.90;;;2.92;;
18048;SDS011;9149;47.002;8.604;2023-06-24T11:16:49;6.72;;;3.30;;
18048;SDS011;9149;47.002;8.604;2023-06-24T11:19:17;4.85;;;2.85;;
18048;SDS011;9149;47.002;8.604;2023-06-24T11:21:45;5.53;;;3.15;;
18048;SDS011;9149;47.002;8.604;2023-06-24T11:24:13;4.63;;;3.15;;
18048;SDS011;9149;47.002;8.604;2023-06-24T11:26:41;5.10;;;2.85;;
18048;SDS011;9149;47.002;8.604;2023-06-24T11:29:09;3.60;;;2.72;;
18048;SDS011;9149;47.002;8.604;2023-06-24T11:31:37;4.80;;;2.58;;
18048;SDS011;9149;47.002;8.604;2023-06-24T11:34:04;5.18;;;2.65;;
18048;SDS011;9149;47.002;8.604;2023-06-24T11:36:32;4.43;;;2.80;;
18048;SDS011;9149;47.002;8.604;2023-06-24T11:39:03;3.08;;;2.35;;
18048;SDS011;9149;47.002;8.604;2023-06-24T11:41:31;3.65;;;2.28;;
18048;SDS011;9149;47.002;8.604;2023-06-24T11:43:59;7.43;;;2.58;;
18048;SDS011;9149;47.002;8.604;2023-06-24T11:46:27;4.25;;;3.05;;
18048;SDS011;9149;47.002;8.604;2023-06-24T11:49:03;7.10;;;2.90;;
18048;SDS011;9149;47.002;8.604;2023-06-24T11:51:30;4.68;;;2.90;;
18048;SDS011;9149;47.002;8.604;2023-06-24T11:53:58;5.97;;;2.85;;
18048;SDS011;9149;47.002;8.604;2023-06-24T11:56:35;4.78;;;2.63;;
18048;SDS011;9149;47.002;8.604;2023-06-24T11:59:03;4.10;;;2.40;;
18048;SDS011;9149;47.002;8.604;2023-06-24T12:01:31;3.95;;;2.47;;
18048;SDS011;9149;47.002;8.604;2023-06-24T12:03:59;4.57;;;2.15;;
18048;SDS011;9149;47.002;8.604;2023-06-24T12:06:27;5.25;;;2.10;;
18048;SDS011;9149;47.002;8.604;2023-06-24T12:08:55;5.03;;;2.22;;
18048;SDS011;9149;47.002;8.604;2023-06-24T12:11:22;6.47;;;2.03;;
18048;SDS011;9149;47.002;8.604;2023-06-24T12:13:51;2.92;;;1.90;;
18048;SDS011;9149;47.002;8.604;2023-06-24T12:16:19;2.78;;;2.13;;
18048;SDS011;9149;47.002;8.604;2023-06-24T12:18:47;5.40;;;2.25;;
18048;SDS011;9149;47.002;8.604;2023-06-24T12:21:14;2.78;;;2.08;;
18048;SDS011;9149;47.002;8.604;2023-06-24T12:23:42;3.15;;;2.08;;
18048;SDS011;9149;47.002;8.604;2023-06-24T12:26:10;3.45;;;2.20;;
18048;SDS011;9149;47.002;8.604;2023-06-24T12:28:37;3.45;;;2.00;;
18048;SDS011;9149;47.002;8.604;2023-06-24T12:31:06;3.55;;;2.38;;
18048;SDS011;9149;47.002;8.604;2023-06-24T12:33:34;2.88;;;2.15;;
18048;SDS011;9149;47.002;8.604;2023-06-24T12:36:02;2.83;;;2.10;;
18048;SDS011;9149;47.002;8.604;2023-06-24T12:38:29;4.60;;;2.15;;
18048;SDS011;9149;47.002;8.604;2023-06-24T12:40:57;3.20;;;2.00;;
18048;SDS011;9149;47.002;8.604;2023-06-24T12:43:25;5.78;;;2.60;;
18048;SDS011;9149;47.002;8.604;2023-06-24T12:45:52;5.20;;;1.95;;
18048;SDS011;9149;47.002;8.604;2023-06-24T12:48:23;2.55;;;1.80;;
18048;SDS011;9149;47.002;8.604;2023-06-24T12:50:50;3.90;;;2.50;;
18048;SDS011;9149;47.002;8.604;2023-06-24T12:53:19;2.35;;;1.77;;
18048;SDS011;9149;47.002;8.604;2023-06-24T12:55:47;3.13;;;1.88;;
18048;SDS011;9149;47.002;8.604;2023-06-24T12:58:16;3.95;;;1.98;;
18048;SDS011;9149;47.002;8.604;2023-06-24T13:00:46;2.75;;;1.98;;
18048;SDS011;9149;47.002;8.604;2023-06-24T13:03:13;4.60;;;2.30;;
18048;SDS011;9149;47.002;8.604;2023-06-24T13:05:42;3.97;;;2.10;;
18048;SDS011;9149;47.002;8.604;2023-06-24T13:08:10;3.67;;;2.15;;
18048;SDS011;9149;47.002;8.604;2023-06-24T13:10:38;3.15;;;1.92;;
18048;SDS011;9149;47.002;8.604;2023-06-24T13:13:06;3.35;;;2.15;;
18048;SDS011;9149;47.002;8.604;2023-06-24T13:15:33;5.05;;;2.15;;
18048;SDS011;9149;47.002;8.604;2023-06-24T13:18:01;7.57;;;1.92;;
18048;SDS011;9149;47.002;8.604;2023-06-24T13:20:29;2.47;;;1.73;;
18048;SDS011;9149;47.002;8.604;2023-06-24T13:22:58;3.42;;;2.38;;
18048;SDS011;9149;47.002;8.604;2023-06-24T13:25:26;2.60;;;1.90;;
18048;SDS011;9149;47.002;8.604;2023-06-24T13:27:53;3.65;;;2.10;;
18048;SDS011;9149;47.002;8.604;2023-06-24T13:30:21;2.70;;;2.08;;
18048;SDS011;9149;47.002;8.604;2023-06-24T13:32:49;3.78;;;1.95;;
18048;SDS011;9149;47.002;8.604;2023-06-24T13:35:16;4.38;;;1.90;;
18048;SDS011;9149;47.002;8.604;2023-06-24T13:37:44;2.63;;;1.90;;
18048;SDS011;9149;47.002;8.604;2023-06-24T13:40:13;2.53;;;1.80;;
18048;SDS011;9149;47.002;8.604;2023-06-24T13:42:41;2.70;;;1.90;;
18048;SDS011;9149;47.002;8.604;2023-06-24T13:45:09;2.90;;;1.90;;
18048;SDS011;9149;47.002;8.604;2023-06-24T13:47:36;3.65;;;2.10;;
18048;SDS011;9149;47.002;8.604;2023-06-24T13:50:05;10.52;;;1.98;;
18048;SDS011;9149;47.002;8.604;2023-06-24T13:52:32;2.70;;;1.85;;
18048;SDS011;9149;47.002;8.604;2023-06-24T13:55:00;5.30;;;2.50;;
18048;SDS011;9149;47.002;8.604;2023-06-24T13:57:29;3.00;;;1.90;;
18048;SDS011;9149;47.002;8.604;2023-06-24T13:59:57;5.90;;;2.00;;
18048;SDS011;9149;47.002;8.604;2023-06-24T14:02:24;2.88;;;1.98;;
18048;SDS011;9149;47.002;8.604;2023-06-24T14:04:52;4.55;;;2.00;;
18048;SDS011;9149;47.002;8.604;2023-06-24T14:07:20;2.97;;;2.00;;
18048;SDS011;9149;47.002;8.604;2023-06-24T14:09:47;2.83;;;1.92;;
18048;SDS011;9149;47.002;8.604;2023-06-24T14:12:15;3.75;;;2.08;;
18048;SDS011;9149;47.002;8.604;2023-06-24T14:14:44;3.38;;;1.95;;
18048;SDS011;9149;47.002;8.604;2023-06-24T14:17:12;2.95;;;2.13;;
18048;SDS011;9149;47.002;8.604;2023-06-24T14:19:39;4.10;;;2.08;;
18048;SDS011;9149;47.002;8.604;2023-06-24T14:22:07;3.67;;;2.30;;
18048;SDS011;9149;47.002;8.604;2023-06-24T14:24:35;4.63;;;2.35;;
18048;SDS011;9149;47.002;8.604;2023-06-24T14:27:04;2.63;;;1.80;;
18048;SDS011;9149;47.002;8.604;2023-06-24T14:29:32;3.03;;;2.03;;
18048;SDS011;9149;47.002;8.604;2023-06-24T14:32:01;3.28;;;1.95;;
18048;SDS011;9149;47.002;8.604;2023-06-24T14:34:28;2.55;;;1.88;;
18048;SDS011;9149;47.002;8.604;2023-06-24T14:36:57;3.63;;;1.60;;
18048;SDS011;9149;47.002;8.604;2023-06-24T14:39:25;3.35;;;2.03;;
18048;SDS011;9149;47.002;8.604;2023-06-24T14:41:56;3.67;;;2.00;;
18048;SDS011;9149;47.002;8.604;2023-06-24T14:44:23;3.67;;;2.17;;
18048;SDS011;9149;47.002;8.604;2023-06-24T14:46:51;3.50;;;1.90;;
18048;SDS011;9149;47.002;8.604;2023-06-24T14:49:20;2.78;;;2.00;;
18048;SDS011;9149;47.002;8.604;2023-06-24T14:51:47;4.57;;;2.22;;
18048;SDS011;9149;47.002;8.604;2023-06-24T14:54:15;3.97;;;2.00;;
18048;SDS011;9149;47.002;8.604;2023-06-24T14:56:43;3.00;;;2.00;;
18048;SDS011;9149;47.002;8.604;2023-06-24T14:59:10;3.10;;;2.15;;
18048;SDS011;9149;47.002;8.604;2023-06-24T15:01:38;3.17;;;1.92;;
18048;SDS011;9149;47.002;8.604;2023-06-24T15:04:06;3.92;;;1.90;;
18048;SDS011;9149;47.002;8.604;2023-06-24T15:06:35;3.97;;;2.03;;
18048;SDS011;9149;47.002;8.604;2023-06-24T15:09:02;2.63;;;1.83;;
18048;SDS011;9149;47.002;8.604;2023-06-24T15:11:30;3.10;;;2.10;;
18048;SDS011;9149;47.002;8.604;2023-06-24T15:13:58;3.42;;;2.13;;
18048;SDS011;9149;47.002;8.604;2023-06-24T15:16:26;3.15;;;2.15;;
18048;SDS011;9149;47.002;8.604;2023-06-24T15:18:53;3.05;;;1.83;;
18048;SDS011;9149;47.002;8.604;2023-06-24T15:21:21;3.15;;;1.95;;
18048;SDS011;9149;47.002;8.604;2023-06-24T15:24:03;3.78;;;2.22;;